createdAt,value
2023-03-23T00:00:42.029Z,3.25
2023-03-23T00:05:38.205Z,2.75
2023-03-23T00:10:34.143Z,2.92
2023-03-23T00:15:26.094Z,3.05
2023-03-23T00:20:18.735Z,2.83
2023-03-23T00:25:10.692Z,2.90
2023-03-23T00:30:02.519Z,3.00
2023-03-23T00:35:00.039Z,2.53
2023-03-23T00:39:52.885Z,2.92
2023-03-23T00:44:44.932Z,3.28
2023-03-23T00:49:38.193Z,2.60
2023-03-23T00:54:30.259Z,2.40
2023-03-23T00:59:23.176Z,2.88
2023-03-23T01:04:17.054Z,2.50
2023-03-23T01:09:11.633Z,3.08
2023-03-23T01:14:03.512Z,3.40
2023-03-23T01:18:55.372Z,2.95
2023-03-23T01:23:47.820Z,3.25
2023-03-23T01:28:40.412Z,2.92
2023-03-23T01:33:32.971Z,3.20
2023-03-23T01:38:24.984Z,3.20
2023-03-23T01:43:17.412Z,3.40
2023-03-23T01:48:24.406Z,3.08
2023-03-23T01:53:16.278Z,3.05
2023-03-23T01:58:09.700Z,3.00
2023-03-23T02:03:02.789Z,3.22
2023-03-23T02:08:04.008Z,2.70
2023-03-23T02:13:01.809Z,3.10
2023-03-23T02:18:02.511Z,3.35
2023-03-23T02:23:42.659Z,3.05
2023-03-23T02:28:53.360Z,2.75
2023-03-23T02:33:56.758Z,3.00
2023-03-23T02:39:06.999Z,3.20
2023-03-23T02:43:59.567Z,2.72
2023-03-23T02:48:53.582Z,3.67
2023-03-23T02:53:46.656Z,3.20
2023-03-23T02:58:38.757Z,2.58
2023-03-23T03:03:31.509Z,2.58
2023-03-23T03:08:28.037Z,2.38
2023-03-23T03:13:42.000Z,2.53
2023-03-23T03:18:43.767Z,2.60
2023-03-23T03:23:38.257Z,2.42
2023-03-23T03:28:33.836Z,2.30
2023-03-23T03:33:28.783Z,2.50
2023-03-23T03:38:21.837Z,2.55
2023-03-23T03:43:19.092Z,2.85
2023-03-23T03:48:11.290Z,3.25
2023-03-23T03:53:04.316Z,3.17
2023-03-23T03:57:56.748Z,4.43
2023-03-23T04:03:10.133Z,4.32
2023-03-23T04:08:18.971Z,5.13
2023-03-23T04:13:10.788Z,5.20
2023-03-23T04:18:24.197Z,5.53
2023-03-23T04:23:24.123Z,5.95
2023-03-23T04:28:19.848Z,5.43
2023-03-23T04:33:59.672Z,5.68
2023-03-23T04:38:44.217Z,5.93
2023-03-23T04:43:43.406Z,7.40
2023-03-23T04:48:46.602Z,6.82
2023-03-23T04:53:45.131Z,7.32
2023-03-23T04:58:37.169Z,7.97
2023-03-23T05:03:49.573Z,8.60
2023-03-23T05:08:42.153Z,9.60
2023-03-23T05:13:34.515Z,9.43
2023-03-23T05:18:27.388Z,8.15
2023-03-23T05:23:21.732Z,7.95
2023-03-23T05:28:14.595Z,8.80
2023-03-23T05:33:32.869Z,8.10
2023-03-23T05:43:38.213Z,8.75
2023-03-23T05:48:48.007Z,8.95
2023-03-23T05:53:43.077Z,10.13
2023-03-23T05:58:37.020Z,9.73
2023-03-23T06:03:30.163Z,9.23
2023-03-23T06:08:34.625Z,10.02
2023-03-23T06:13:26.581Z,9.90
2023-03-23T06:18:21.782Z,9.45
2023-03-23T06:23:30.397Z,8.73
2023-03-23T06:28:23.247Z,7.30
2023-03-23T06:33:15.225Z,8.15
2023-03-23T06:38:27.455Z,9.10
2023-03-23T06:43:21.633Z,8.57
2023-03-23T06:48:19.976Z,7.47
2023-03-23T06:53:12.760Z,8.13
2023-03-23T06:58:09.732Z,8.30
2023-03-23T07:03:02.319Z,7.22
2023-03-23T07:07:54.872Z,7.78
2023-03-23T07:12:55.487Z,7.43
2023-03-23T07:17:49.497Z,7.25
2023-03-23T07:22:59.570Z,7.32
2023-03-23T07:28:20.818Z,6.47
2023-03-23T07:33:13.989Z,6.20
2023-03-23T07:38:08.051Z,5.63
2023-03-23T07:43:02.293Z,6.57
2023-03-23T07:48:21.099Z,6.40
2023-03-23T07:53:14.361Z,7.72
2023-03-23T07:58:09.696Z,7.35
2023-03-23T08:03:01.740Z,7.47
2023-03-23T08:08:01.177Z,10.60
2023-03-23T08:13:15.796Z,8.70
2023-03-23T08:18:07.692Z,9.25
2023-03-23T08:23:18.304Z,10.10
2023-03-23T08:28:28.766Z,10.48
2023-03-23T08:33:42.326Z,13.30
2023-03-23T08:38:56.941Z,11.93
2023-03-23T08:44:08.828Z,11.80
2023-03-23T08:49:00.624Z,11.60
2023-03-23T08:54:08.681Z,11.10
2023-03-23T08:59:32.771Z,13.50
2023-03-23T09:04:54.916Z,12.20
2023-03-23T09:09:55.876Z,13.88
2023-03-23T09:14:47.685Z,13.32
2023-03-23T09:19:39.770Z,13.38
2023-03-23T09:24:32.006Z,13.43
2023-03-23T09:29:23.850Z,12.55
2023-03-23T09:34:19.399Z,12.98
2023-03-23T09:39:12.653Z,12.45
2023-03-23T09:44:31.986Z,11.57
2023-03-23T09:49:26.776Z,11.57
2023-03-23T09:54:27.836Z,10.45
2023-03-23T09:59:56.373Z,8.95
2023-03-23T10:04:51.356Z,12.83
2023-03-23T10:09:45.273Z,9.95
2023-03-23T10:14:44.605Z,12.18
2023-03-23T10:19:43.692Z,10.90
2023-03-23T10:24:47.685Z,13.35
2023-03-23T10:29:46.979Z,13.15
2023-03-23T10:34:47.739Z,13.52
2023-03-23T10:39:55.784Z,14.57
2023-03-23T10:44:47.837Z,13.70
2023-03-23T10:49:45.024Z,13.25
2023-03-23T10:54:40.430Z,14.82
2023-03-23T10:59:34.720Z,15.57
2023-03-23T11:04:27.280Z,15.85
2023-03-23T11:09:21.992Z,13.60
2023-03-23T11:14:26.661Z,14.38
2023-03-23T11:19:28.217Z,13.55
2023-03-23T11:24:22.574Z,14.80
2023-03-23T11:29:21.028Z,14.13
2023-03-23T11:39:30.871Z,14.35
2023-03-23T11:44:25.022Z,12.80
2023-03-23T11:49:28.829Z,12.10
2023-03-23T11:54:47.634Z,12.38
2023-03-23T11:59:39.994Z,11.82
2023-03-23T12:04:39.035Z,13.88
2023-03-23T12:09:52.818Z,12.85
2023-03-23T12:14:44.544Z,11.93
2023-03-23T12:19:42.715Z,12.73
2023-03-23T12:25:23.296Z,13.65
2023-03-23T12:30:55.884Z,11.43
2023-03-23T12:36:06.879Z,13.63
2023-03-23T12:41:28.324Z,12.13
2023-03-23T12:46:45.807Z,12.13
2023-03-23T12:51:52.169Z,10.90
2023-03-23T12:56:54.184Z,10.68
2023-03-23T13:01:49.855Z,12.98
2023-03-23T13:06:44.376Z,13.55
2023-03-23T13:11:38.580Z,13.18
2023-03-23T13:16:46.548Z,15.05
2023-03-23T13:22:10.636Z,14.67
2023-03-23T13:27:02.751Z,13.23
2023-03-23T13:32:08.562Z,12.27
2023-03-23T13:37:12.869Z,11.77
2023-03-23T13:42:10.979Z,13.18
2023-03-23T13:47:18.100Z,14.40
2023-03-23T13:52:19.369Z,13.63
2023-03-23T13:57:38.645Z,13.40
2023-03-23T14:02:38.120Z,12.25
2023-03-23T14:07:30.005Z,12.95
2023-03-23T14:12:28.658Z,14.15
2023-03-23T14:17:27.249Z,13.77
2023-03-23T14:22:23.762Z,12.63
2023-03-23T14:27:16.832Z,14.10
2023-03-23T14:32:17.417Z,13.55
2023-03-23T14:37:17.203Z,13.27
2023-03-23T14:42:15.119Z,13.60
2023-03-23T14:47:11.969Z,13.50
2023-03-23T14:52:11.132Z,12.73
2023-03-23T14:57:15.347Z,12.38
2023-03-23T15:02:11.363Z,13.63
2023-03-23T15:07:06.121Z,14.57
2023-03-23T15:12:01.734Z,15.40
2023-03-23T15:16:56.092Z,15.45
2023-03-23T15:21:54.234Z,16.88
2023-03-23T15:26:46.095Z,16.05
2023-03-23T15:31:49.839Z,13.63
2023-03-23T15:36:42.509Z,13.93
2023-03-23T15:41:34.557Z,13.25
2023-03-23T15:46:29.976Z,14.40
2023-03-23T15:51:23.802Z,12.32
2023-03-23T15:56:15.893Z,13.48
2023-03-23T16:01:18.514Z,14.85
2023-03-23T16:06:23.638Z,14.50
2023-03-23T16:11:18.816Z,14.07
2023-03-23T16:16:18.004Z,15.30
2023-03-23T16:21:10.040Z,13.43
2023-03-23T16:26:01.964Z,14.13
2023-03-23T16:30:53.928Z,13.85
2023-03-23T16:35:46.351Z,11.95
2023-03-23T16:40:38.234Z,14.13
2023-03-23T16:45:30.394Z,13.95
2023-03-23T16:50:22.542Z,13.25
2023-03-23T16:55:17.342Z,13.07
2023-03-23T17:00:13.258Z,13.38
2023-03-23T17:05:05.618Z,12.20
2023-03-23T17:09:57.390Z,11.95
2023-03-23T17:14:49.337Z,11.48
2023-03-23T17:19:41.340Z,11.60
2023-03-23T17:24:33.096Z,11.18
2023-03-23T17:29:24.908Z,11.73
2023-03-23T17:34:18.801Z,10.93
2023-03-23T17:39:11.650Z,11.27
2023-03-23T17:44:03.489Z,9.75
2023-03-23T17:48:55.402Z,7.43
2023-03-23T17:53:48.852Z,7.35
2023-03-23T17:58:40.945Z,4.75
2023-03-23T18:03:33.286Z,6.43
2023-03-23T18:08:26.386Z,4.72
2023-03-23T18:13:18.278Z,3.92
2023-03-23T18:18:10.481Z,3.72
2023-03-23T18:23:03.841Z,3.83
2023-03-23T18:27:56.412Z,3.20
2023-03-23T18:32:56.854Z,4.47
2023-03-23T18:37:48.764Z,3.60
2023-03-23T18:42:42.348Z,3.85
2023-03-23T18:47:34.354Z,3.35
2023-03-23T18:52:26.872Z,3.53
2023-03-23T18:57:21.598Z,3.55
2023-03-23T19:02:14.120Z,3.42
2023-03-23T19:07:06.187Z,2.97
2023-03-23T19:11:58.022Z,3.50
2023-03-23T19:16:49.811Z,3.78
2023-03-23T19:21:46.926Z,4.18
2023-03-23T19:26:42.630Z,4.80
2023-03-23T19:31:34.451Z,3.90
2023-03-23T19:36:27.211Z,3.97
2023-03-23T19:41:19.419Z,3.58
2023-03-23T19:46:11.590Z,4.07
2023-03-23T19:51:07.210Z,6.60
2023-03-23T19:55:59.487Z,4.18
2023-03-23T20:00:51.338Z,3.60
2023-03-23T20:05:43.390Z,3.80
2023-03-23T20:10:35.632Z,4.10
2023-03-23T20:15:28.155Z,4.40
2023-03-23T20:20:20.417Z,4.65
2023-03-23T20:25:12.865Z,4.60
2023-03-23T20:30:07.672Z,4.10
2023-03-23T20:35:08.979Z,4.70
2023-03-23T20:40:02.399Z,4.55
2023-03-23T20:44:54.407Z,4.38
2023-03-23T20:49:53.326Z,4.80
2023-03-23T20:54:45.882Z,4.20
2023-03-23T20:59:37.731Z,4.82
2023-03-23T21:04:30.372Z,4.22
2023-03-23T21:09:22.255Z,5.35
2023-03-23T21:14:14.494Z,4.55
2023-03-23T21:19:06.656Z,4.05
2023-03-23T21:23:58.579Z,4.00
2023-03-23T21:28:50.947Z,4.13
2023-03-23T21:33:43.220Z,4.78
2023-03-23T21:38:35.351Z,3.85
2023-03-23T21:43:27.900Z,4.07
2023-03-23T21:48:22.179Z,4.50
2023-03-23T21:53:18.288Z,4.22
2023-03-23T21:58:10.230Z,4.70
2023-03-23T22:03:02.926Z,3.78
2023-03-23T22:07:54.752Z,3.92
2023-03-23T22:12:49.302Z,3.58
2023-03-23T22:17:41.379Z,4.13
2023-03-23T22:22:33.269Z,3.95
2023-03-23T22:27:25.301Z,3.85
2023-03-23T22:32:17.217Z,3.70
2023-03-23T22:37:09.151Z,4.30
2023-03-23T22:42:01.080Z,4.20
2023-03-23T22:46:53.217Z,4.57
2023-03-23T22:51:45.387Z,4.15
2023-03-23T22:56:38.218Z,3.35
2023-03-23T23:01:30.224Z,4.22
2023-03-23T23:06:22.171Z,3.85
2023-03-23T23:11:16.469Z,4.00
2023-03-23T23:16:09.687Z,3.72
2023-03-23T23:21:06.200Z,4.07
2023-03-23T23:25:58.448Z,4.20
2023-03-23T23:30:51.135Z,4.13
2023-03-23T23:35:43.616Z,4.32
2023-03-23T23:40:35.668Z,4.70
2023-03-23T23:45:28.014Z,4.45
2023-03-23T23:50:20.338Z,4.82
2023-03-23T23:55:16.009Z,4.28
